sensor_id;sensor_type;location;lat;lon;timestamp;temperature;humidity
27633;DHT22;15046;50.930;13.334;2023-03-23T00:02:28;13.20;72.70
27633;DHT22;15046;50.930;13.334;2023-03-23T00:04:55;13.20;72.50
27633;DHT22;15046;50.930;13.334;2023-03-23T00:07:21;13.20;72.60
27633;DHT22;15046;50.930;13.334;2023-03-23T00:09:48;13.20;72.50
27633;DHT22;15046;50.930;13.334;2023-03-23T00:12:24;13.20;72.30
27633;DHT22;15046;50.930;13.334;2023-03-23T00:14:55;13.20;72.20
27633;DHT22;15046;50.930;13.334;2023-03-23T00:17:21;13.20;72.20
27633;DHT22;15046;50.930;13.334;2023-03-23T00:19:49;13.20;72.20
27633;DHT22;15046;50.930;13.334;2023-03-23T00:22:16;13.20;72.20
27633;DHT22;15046;50.930;13.334;2023-03-23T00:24:42;13.20;72.20
27633;DHT22;15046;50.930;13.334;2023-03-23T00:27:09;13.20;72.10
27633;DHT22;15046;50.930;13.334;2023-03-23T00:29:38;13.10;72.10
27633;DHT22;15046;50.930;13.334;2023-03-23T00:32:06;13.10;72.00
27633;DHT22;15046;50.930;13.334;2023-03-23T00:34:32;13.20;72.10
27633;DHT22;15046;50.930;13.334;2023-03-23T00:37:00;13.10;71.80
27633;DHT22;15046;50.930;13.334;2023-03-23T00:39:27;13.10;71.80
27633;DHT22;15046;50.930;13.334;2023-03-23T00:41:54;13.10;71.60
27633;DHT22;15046;50.930;13.334;2023-03-23T00:44:30;13.10;71.50
27633;DHT22;15046;50.930;13.334;2023-03-23T00:46:57;13.10;71.40
27633;DHT22;15046;50.930;13.334;2023-03-23T00:49:24;13.10;71.40
27633;DHT22;15046;50.930;13.334;2023-03-23T00:51:55;13.10;71.20
27633;DHT22;15046;50.930;13.334;2023-03-23T00:54:22;13.10;71.10
27633;DHT22;15046;50.930;13.334;2023-03-23T00:56:48;13.10;71.10
27633;DHT22;15046;50.930;13.334;2023-03-23T00:59:15;13.10;71.00
27633;DHT22;15046;50.930;13.334;2023-03-23T01:01:41;13.10;71.00
27633;DHT22;15046;50.930;13.334;2023-03-23T01:04:07;13.10;71.00
27633;DHT22;15046;50.930;13.334;2023-03-23T01:06:37;13.00;71.00
27633;DHT22;15046;50.930;13.334;2023-03-23T01:09:10;13.10;71.10
27633;DHT22;15046;50.930;13.334;2023-03-23T01:11:36;13.00;71.10
27633;DHT22;15046;50.930;13.334;2023-03-23T01:14:03;13.00;71.00
27633;DHT22;15046;50.930;13.334;2023-03-23T01:16:29;13.00;71.00
27633;DHT22;15046;50.930;13.334;2023-03-23T01:18:54;13.00;71.00
27633;DHT22;15046;50.930;13.334;2023-03-23T01:21:21;13.00;70.90
27633;DHT22;15046;50.930;13.334;2023-03-23T01:23:47;13.00;70.70
27633;DHT22;15046;50.930;13.334;2023-03-23T01:26:16;13.00;70.70
27633;DHT22;15046;50.930;13.334;2023-03-23T01:28:43;13.00;70.60
27633;DHT22;15046;50.930;13.334;2023-03-23T01:31:11;13.00;70.60
27633;DHT22;15046;50.930;13.334;2023-03-23T01:33:38;12.90;70.70
27633;DHT22;15046;50.930;13.334;2023-03-23T01:36:06;12.90;70.70
27633;DHT22;15046;50.930;13.334;2023-03-23T01:38:34;13.00;70.90
27633;DHT22;15046;50.930;13.334;2023-03-23T01:41:00;12.90;71.00
27633;DHT22;15046;50.930;13.334;2023-03-23T01:43:26;12.90;70.80
27633;DHT22;15046;50.930;13.334;2023-03-23T01:45:52;12.90;70.60
27633;DHT22;15046;50.930;13.334;2023-03-23T01:48:20;12.90;70.60
27633;DHT22;15046;50.930;13.334;2023-03-23T01:51:12;13.00;70.40
27633;DHT22;15046;50.930;13.334;2023-03-23T01:53:47;13.00;70.30
27633;DHT22;15046;50.930;13.334;2023-03-23T01:56:15;13.00;70.40
27633;DHT22;15046;50.930;13.334;2023-03-23T01:58:44;13.00;70.60
27633;DHT22;15046;50.930;13.334;2023-03-23T02:01:13;12.90;70.70
27633;DHT22;15046;50.930;13.334;2023-03-23T02:03:42;12.90;70.70
27633;DHT22;15046;50.930;13.334;2023-03-23T02:06:10;12.90;70.60
27633;DHT22;15046;50.930;13.334;2023-03-23T02:08:37;12.90;70.60
27633;DHT22;15046;50.930;13.334;2023-03-23T02:11:15;12.90;70.60
27633;DHT22;15046;50.930;13.334;2023-03-23T02:13:41;12.90;70.40
27633;DHT22;15046;50.930;13.334;2023-03-23T02:30:07;12.90;70.40
27633;DHT22;15046;50.930;13.334;2023-03-23T02:35:20;12.90;70.50
27633;DHT22;15046;50.930;13.334;2023-03-23T02:38:00;12.90;70.50
27633;DHT22;15046;50.930;13.334;2023-03-23T02:40:35;12.90;70.40
27633;DHT22;15046;50.930;13.334;2023-03-23T02:43:07;12.90;71.10
27633;DHT22;15046;50.930;13.334;2023-03-23T02:45:35;12.90;70.60
27633;DHT22;15046;50.930;13.334;2023-03-23T02:48:03;12.90;70.60
27633;DHT22;15046;50.930;13.334;2023-03-23T02:50:30;12.90;70.60
27633;DHT22;15046;50.930;13.334;2023-03-23T02:52:58;12.80;70.70
27633;DHT22;15046;50.930;13.334;2023-03-23T02:55:27;12.90;70.90
27633;DHT22;15046;50.930;13.334;2023-03-23T02:57:55;12.80;71.10
27633;DHT22;15046;50.930;13.334;2023-03-23T03:00:22;12.80;71.20
27633;DHT22;15046;50.930;13.334;2023-03-23T03:02:52;12.80;71.20
27633;DHT22;15046;50.930;13.334;2023-03-23T03:08:02;12.80;71.20
27633;DHT22;15046;50.930;13.334;2023-03-23T03:13:23;12.90;71.70
27633;DHT22;15046;50.930;13.334;2023-03-23T03:19:01;12.90;71.90
27633;DHT22;15046;50.930;13.334;2023-03-23T03:21:30;12.90;71.90
27633;DHT22;15046;50.930;13.334;2023-03-23T03:23:58;12.90;72.00
27633;DHT22;15046;50.930;13.334;2023-03-23T03:26:27;13.00;72.20
27633;DHT22;15046;50.930;13.334;2023-03-23T03:28:54;13.00;72.40
27633;DHT22;15046;50.930;13.334;2023-03-23T03:31:32;12.90;72.60
27633;DHT22;15046;50.930;13.334;2023-03-23T03:33:59;13.00;72.70
27633;DHT22;15046;50.930;13.334;2023-03-23T03:36:33;13.00;72.90
27633;DHT22;15046;50.930;13.334;2023-03-23T03:39:08;13.00;73.00
27633;DHT22;15046;50.930;13.334;2023-03-23T03:41:35;12.90;73.00
27633;DHT22;15046;50.930;13.334;2023-03-23T03:44:03;13.00;73.10
27633;DHT22;15046;50.930;13.334;2023-03-23T03:46:29;13.10;73.20
27633;DHT22;15046;50.930;13.334;2023-03-23T03:48:57;13.10;73.20
27633;DHT22;15046;50.930;13.334;2023-03-23T03:51:24;13.10;73.20
27633;DHT22;15046;50.930;13.334;2023-03-23T03:53:51;13.10;73.30
27633;DHT22;15046;50.930;13.334;2023-03-23T03:56:16;13.00;73.30
27633;DHT22;15046;50.930;13.334;2023-03-23T03:58:42;13.00;73.40
27633;DHT22;15046;50.930;13.334;2023-03-23T04:01:09;13.00;73.40
27633;DHT22;15046;50.930;13.334;2023-03-23T04:03:36;13.00;73.50
27633;DHT22;15046;50.930;13.334;2023-03-23T04:06:03;13.10;73.50
27633;DHT22;15046;50.930;13.334;2023-03-23T04:08:29;13.10;73.50
27633;DHT22;15046;50.930;13.334;2023-03-23T04:10:55;13.10;73.60
27633;DHT22;15046;50.930;13.334;2023-03-23T04:13:21;13.10;73.40
27633;DHT22;15046;50.930;13.334;2023-03-23T04:15:47;13.10;73.40
27633;DHT22;15046;50.930;13.334;2023-03-23T04:18:13;13.20;73.30
27633;DHT22;15046;50.930;13.334;2023-03-23T04:20:42;13.20;73.30
27633;DHT22;15046;50.930;13.334;2023-03-23T04:23:08;13.20;73.20
27633;DHT22;15046;50.930;13.334;2023-03-23T04:25:34;13.20;73.20
27633;DHT22;15046;50.930;13.334;2023-03-23T04:28:01;13.10;73.20
27633;DHT22;15046;50.930;13.334;2023-03-23T04:30:28;13.10;73.20
27633;DHT22;15046;50.930;13.334;2023-03-23T04:32:55;13.10;73.30
27633;DHT22;15046;50.930;13.334;2023-03-23T04:35:22;13.10;73.30
27633;DHT22;15046;50.930;13.334;2023-03-23T04:37:50;13.00;73.40
27633;DHT22;15046;50.930;13.334;2023-03-23T04:40:16;13.10;73.50
27633;DHT22;15046;50.930;13.334;2023-03-23T04:42:43;13.10;73.50
27633;DHT22;15046;50.930;13.334;2023-03-23T04:45:15;13.10;73.40
27633;DHT22;15046;50.930;13.334;2023-03-23T04:47:41;13.10;73.40
27633;DHT22;15046;50.930;13.334;2023-03-23T04:50:10;13.10;73.40
27633;DHT22;15046;50.930;13.334;2023-03-23T04:52:38;13.10;73.30
27633;DHT22;15046;50.930;13.334;2023-03-23T04:55:07;13.10;73.10
27633;DHT22;15046;50.930;13.334;2023-03-23T04:57:34;13.10;73.10
27633;DHT22;15046;50.930;13.334;2023-03-23T05:00:01;13.10;73.20
27633;DHT22;15046;50.930;13.334;2023-03-23T05:02:36;13.10;73.00
27633;DHT22;15046;50.930;13.334;2023-03-23T05:05:02;13.10;72.90
27633;DHT22;15046;50.930;13.334;2023-03-23T05:07:27;13.10;72.90
27633;DHT22;15046;50.930;13.334;2023-03-23T05:09:53;13.10;72.80
27633;DHT22;15046;50.930;13.334;2023-03-23T05:12:19;13.20;72.60
27633;DHT22;15046;50.930;13.334;2023-03-23T05:14:45;13.20;72.50
27633;DHT22;15046;50.930;13.334;2023-03-23T05:17:10;13.20;72.40
27633;DHT22;15046;50.930;13.334;2023-03-23T05:19:38;13.30;72.30
27633;DHT22;15046;50.930;13.334;2023-03-23T05:22:04;13.30;72.20
27633;DHT22;15046;50.930;13.334;2023-03-23T05:24:30;13.30;72.00
27633;DHT22;15046;50.930;13.334;2023-03-23T05:26:59;13.20;72.00
27633;DHT22;15046;50.930;13.334;2023-03-23T05:29:25;13.20;71.90
27633;DHT22;15046;50.930;13.334;2023-03-23T05:31:52;13.20;71.90
27633;DHT22;15046;50.930;13.334;2023-03-23T05:34:21;13.20;71.90
27633;DHT22;15046;50.930;13.334;2023-03-23T05:36:46;13.20;71.90
27633;DHT22;15046;50.930;13.334;2023-03-23T05:39:13;13.30;71.70
27633;DHT22;15046;50.930;13.334;2023-03-23T05:41:40;13.30;71.60
27633;DHT22;15046;50.930;13.334;2023-03-23T05:44:05;13.30;71.70
27633;DHT22;15046;50.930;13.334;2023-03-23T05:46:31;13.30;71.60
27633;DHT22;15046;50.930;13.334;2023-03-23T05:48:58;13.40;71.70
27633;DHT22;15046;50.930;13.334;2023-03-23T05:51:23;13.40;71.70
27633;DHT22;15046;50.930;13.334;2023-03-23T05:53:49;13.40;71.60
27633;DHT22;15046;50.930;13.334;2023-03-23T05:56:15;13.40;71.50
27633;DHT22;15046;50.930;13.334;2023-03-23T05:58:41;13.50;71.60
27633;DHT22;15046;50.930;13.334;2023-03-23T06:01:08;13.50;71.70
27633;DHT22;15046;50.930;13.334;2023-03-23T06:03:34;13.40;71.80
27633;DHT22;15046;50.930;13.334;2023-03-23T06:06:03;13.40;72.00
27633;DHT22;15046;50.930;13.334;2023-03-23T06:08:29;13.40;72.10
27633;DHT22;15046;50.930;13.334;2023-03-23T06:10:56;13.40;72.20
27633;DHT22;15046;50.930;13.334;2023-03-23T06:13:22;13.40;72.30
27633;DHT22;15046;50.930;13.334;2023-03-23T06:15:49;13.40;72.50
27633;DHT22;15046;50.930;13.334;2023-03-23T06:18:14;13.40;72.70
27633;DHT22;15046;50.930;13.334;2023-03-23T06:20:40;13.40;72.70
27633;DHT22;15046;50.930;13.334;2023-03-23T06:23:09;13.40;72.80
27633;DHT22;15046;50.930;13.334;2023-03-23T06:25:35;13.50;72.80
27633;DHT22;15046;50.930;13.334;2023-03-23T06:28:00;13.50;72.60
27633;DHT22;15046;50.930;13.334;2023-03-23T06:30:26;13.60;72.70
27633;DHT22;15046;50.930;13.334;2023-03-23T06:32:53;13.60;72.70
27633;DHT22;15046;50.930;13.334;2023-03-23T06:35:19;13.60;72.70
27633;DHT22;15046;50.930;13.334;2023-03-23T06:37:45;13.60;72.80
27633;DHT22;15046;50.930;13.334;2023-03-23T06:40:11;13.60;73.00
27633;DHT22;15046;50.930;13.334;2023-03-23T06:42:38;13.60;73.00
27633;DHT22;15046;50.930;13.334;2023-03-23T06:45:04;13.50;73.00
27633;DHT22;15046;50.930;13.334;2023-03-23T06:47:30;13.60;73.20
27633;DHT22;15046;50.930;13.334;2023-03-23T06:49:58;13.50;73.30
27633;DHT22;15046;50.930;13.334;2023-03-23T06:52:24;13.50;73.40
27633;DHT22;15046;50.930;13.334;2023-03-23T06:54:51;13.60;73.60
27633;DHT22;15046;50.930;13.334;2023-03-23T06:57:18;13.60;73.40
27633;DHT22;15046;50.930;13.334;2023-03-23T06:59:44;13.70;73.10
27633;DHT22;15046;50.930;13.334;2023-03-23T07:02:12;13.80;73.00
27633;DHT22;15046;50.930;13.334;2023-03-23T07:04:39;13.90;72.80
27633;DHT22;15046;50.930;13.334;2023-03-23T07:07:08;14.00;73.00
27633;DHT22;15046;50.930;13.334;2023-03-23T07:09:34;14.20;72.80
27633;DHT22;15046;50.930;13.334;2023-03-23T07:12:00;14.40;72.60
27633;DHT22;15046;50.930;13.334;2023-03-23T07:14:26;14.50;72.30
27633;DHT22;15046;50.930;13.334;2023-03-23T07:16:52;14.60;72.10
27633;DHT22;15046;50.930;13.334;2023-03-23T07:19:19;14.70;71.80
27633;DHT22;15046;50.930;13.334;2023-03-23T07:21:45;14.90;71.70
27633;DHT22;15046;50.930;13.334;2023-03-23T07:24:14;14.90;71.60
27633;DHT22;15046;50.930;13.334;2023-03-23T07:26:43;14.90;71.20
27633;DHT22;15046;50.930;13.334;2023-03-23T07:29:09;14.90;71.20
27633;DHT22;15046;50.930;13.334;2023-03-23T07:31:35;14.90;71.30
27633;DHT22;15046;50.930;13.334;2023-03-23T07:34:01;14.80;71.40
27633;DHT22;15046;50.930;13.334;2023-03-23T07:36:28;14.80;71.40
27633;DHT22;15046;50.930;13.334;2023-03-23T07:38:54;14.70;71.80
27633;DHT22;15046;50.930;13.334;2023-03-23T07:41:21;14.60;72.10
27633;DHT22;15046;50.930;13.334;2023-03-23T07:43:47;14.60;72.30
27633;DHT22;15046;50.930;13.334;2023-03-23T07:46:13;14.70;72.20
27633;DHT22;15046;50.930;13.334;2023-03-23T07:48:39;14.70;72.00
27633;DHT22;15046;50.930;13.334;2023-03-23T07:51:06;14.80;72.00
27633;DHT22;15046;50.930;13.334;2023-03-23T07:53:33;14.80;71.90
27633;DHT22;15046;50.930;13.334;2023-03-23T07:55:59;14.80;72.00
27633;DHT22;15046;50.930;13.334;2023-03-23T07:58:24;14.70;72.20
27633;DHT22;15046;50.930;13.334;2023-03-23T08:00:52;14.70;72.30
27633;DHT22;15046;50.930;13.334;2023-03-23T08:03:18;14.70;72.40
27633;DHT22;15046;50.930;13.334;2023-03-23T08:05:44;14.70;72.30
27633;DHT22;15046;50.930;13.334;2023-03-23T08:08:10;14.80;72.40
27633;DHT22;15046;50.930;13.334;2023-03-23T08:10:37;14.80;72.40
27633;DHT22;15046;50.930;13.334;2023-03-23T08:13:03;14.90;72.40
27633;DHT22;15046;50.930;13.334;2023-03-23T08:15:30;15.00;72.40
27633;DHT22;15046;50.930;13.334;2023-03-23T08:17:56;15.00;72.30
27633;DHT22;15046;50.930;13.334;2023-03-23T08:20:21;15.00;72.10
27633;DHT22;15046;50.930;13.334;2023-03-23T08:22:55;15.00;72.20
27633;DHT22;15046;50.930;13.334;2023-03-23T08:25:22;14.90;72.30
27633;DHT22;15046;50.930;13.334;2023-03-23T08:27:49;14.80;72.70
27633;DHT22;15046;50.930;13.334;2023-03-23T08:30:17;14.80;73.10
27633;DHT22;15046;50.930;13.334;2023-03-23T08:32:44;14.80;73.40
27633;DHT22;15046;50.930;13.334;2023-03-23T08:35:11;14.90;73.50
27633;DHT22;15046;50.930;13.334;2023-03-23T08:37:38;14.80;73.40
27633;DHT22;15046;50.930;13.334;2023-03-23T08:40:05;14.80;73.60
27633;DHT22;15046;50.930;13.334;2023-03-23T08:42:39;14.60;73.90
27633;DHT22;15046;50.930;13.334;2023-03-23T08:45:07;14.40;74.50
27633;DHT22;15046;50.930;13.334;2023-03-23T08:47:35;14.20;75.30
27633;DHT22;15046;50.930;13.334;2023-03-23T08:50:03;14.20;75.90
27633;DHT22;15046;50.930;13.334;2023-03-23T08:52:29;14.10;76.70
27633;DHT22;15046;50.930;13.334;2023-03-23T08:54:56;13.90;77.30
27633;DHT22;15046;50.930;13.334;2023-03-23T08:57:22;13.80;78.30
27633;DHT22;15046;50.930;13.334;2023-03-23T08:59:48;13.80;78.80
27633;DHT22;15046;50.930;13.334;2023-03-23T09:02:15;13.90;78.90
27633;DHT22;15046;50.930;13.334;2023-03-23T09:04:42;13.90;79.20
27633;DHT22;15046;50.930;13.334;2023-03-23T09:07:09;13.60;79.90
27633;DHT22;15046;50.930;13.334;2023-03-23T09:09:36;13.40;80.60
27633;DHT22;15046;50.930;13.334;2023-03-23T09:12:03;13.40;81.00
27633;DHT22;15046;50.930;13.334;2023-03-23T09:14:29;13.30;81.30
27633;DHT22;15046;50.930;13.334;2023-03-23T09:16:54;13.30;81.70
27633;DHT22;15046;50.930;13.334;2023-03-23T09:19:20;13.10;82.20
27633;DHT22;15046;50.930;13.334;2023-03-23T09:21:46;12.80;83.20
27633;DHT22;15046;50.930;13.334;2023-03-23T09:24:11;12.60;84.10
27633;DHT22;15046;50.930;13.334;2023-03-23T09:26:37;12.50;84.80
27633;DHT22;15046;50.930;13.334;2023-03-23T09:29:03;12.40;85.60
27633;DHT22;15046;50.930;13.334;2023-03-23T09:31:29;12.30;86.70
27633;DHT22;15046;50.930;13.334;2023-03-23T09:33:57;12.10;87.70
27633;DHT22;15046;50.930;13.334;2023-03-23T09:36:25;12.10;88.60
27633;DHT22;15046;50.930;13.334;2023-03-23T09:38:57;12.10;89.20
27633;DHT22;15046;50.930;13.334;2023-03-23T09:47:01;11.70;90.80
27633;DHT22;15046;50.930;13.334;2023-03-23T09:49:54;11.90;91.40
27633;DHT22;15046;50.930;13.334;2023-03-23T09:52:21;12.00;91.70
27633;DHT22;15046;50.930;13.334;2023-03-23T09:54:50;12.10;92.40
27633;DHT22;15046;50.930;13.334;2023-03-23T10:00:26;12.40;94.30
27633;DHT22;15046;50.930;13.334;2023-03-23T10:03:18;12.60;94.80
27633;DHT22;15046;50.930;13.334;2023-03-23T10:05:49;12.70;94.60
27633;DHT22;15046;50.930;13.334;2023-03-23T10:08:18;12.90;94.40
27633;DHT22;15046;50.930;13.334;2023-03-23T10:16:01;13.30;93.30
27633;DHT22;15046;50.930;13.334;2023-03-23T10:18:36;13.30;92.80
27633;DHT22;15046;50.930;13.334;2023-03-23T10:21:02;13.30;92.60
27633;DHT22;15046;50.930;13.334;2023-03-23T10:24:00;13.30;92.70
27633;DHT22;15046;50.930;13.334;2023-03-23T10:29:34;13.40;92.40
27633;DHT22;15046;50.930;13.334;2023-03-23T10:32:20;13.50;92.20
27633;DHT22;15046;50.930;13.334;2023-03-23T10:34:57;13.70;91.80
27633;DHT22;15046;50.930;13.334;2023-03-23T10:37:29;13.90;91.10
27633;DHT22;15046;50.930;13.334;2023-03-23T10:40:00;14.00;90.50
27633;DHT22;15046;50.930;13.334;2023-03-23T10:42:34;14.10;90.30
27633;DHT22;15046;50.930;13.334;2023-03-23T10:47:39;14.30;89.00
27633;DHT22;15046;50.930;13.334;2023-03-23T10:50:06;14.30;88.60
27633;DHT22;15046;50.930;13.334;2023-03-23T10:52:42;14.40;88.30
27633;DHT22;15046;50.930;13.334;2023-03-23T10:55:15;14.50;88.10
27633;DHT22;15046;50.930;13.334;2023-03-23T10:57:57;14.80;87.80
27633;DHT22;15046;50.930;13.334;2023-03-23T11:00:25;14.90;86.90
27633;DHT22;15046;50.930;13.334;2023-03-23T11:08:24;15.30;85.80
27633;DHT22;15046;50.930;13.334;2023-03-23T11:10:57;15.30;86.00
27633;DHT22;15046;50.930;13.334;2023-03-23T11:13:30;15.30;85.50
27633;DHT22;15046;50.930;13.334;2023-03-23T11:15:56;15.40;85.20
27633;DHT22;15046;50.930;13.334;2023-03-23T11:18:34;15.40;84.80
27633;DHT22;15046;50.930;13.334;2023-03-23T11:21:01;15.40;84.10
27633;DHT22;15046;50.930;13.334;2023-03-23T11:23:37;15.30;84.20
27633;DHT22;15046;50.930;13.334;2023-03-23T11:29:19;15.20;84.60
27633;DHT22;15046;50.930;13.334;2023-03-23T11:31:48;15.20;84.50
27633;DHT22;15046;50.930;13.334;2023-03-23T11:34:29;15.10;84.50
27633;DHT22;15046;50.930;13.334;2023-03-23T11:39:33;14.50;85.60
27633;DHT22;15046;50.930;13.334;2023-03-23T11:42:23;13.90;88.00
27633;DHT22;15046;50.930;13.334;2023-03-23T11:44:54;13.40;90.10
27633;DHT22;15046;50.930;13.334;2023-03-23T11:48:33;13.10;90.90
27633;DHT22;15046;50.930;13.334;2023-03-23T11:53:29;12.70;91.90
27633;DHT22;15046;50.930;13.334;2023-03-23T11:56:24;12.60;92.90
27633;DHT22;15046;50.930;13.334;2023-03-23T11:58:57;12.70;94.90
27633;DHT22;15046;50.930;13.334;2023-03-23T12:07:28;12.90;97.40
27633;DHT22;15046;50.930;13.334;2023-03-23T12:10:08;12.90;98.50
27633;DHT22;15046;50.930;13.334;2023-03-23T12:23:24;13.00;99.90
27633;DHT22;15046;50.930;13.334;2023-03-23T12:26:13;12.90;99.90
27633;DHT22;15046;50.930;13.334;2023-03-23T12:32:02;13.00;99.90
27633;DHT22;15046;50.930;13.334;2023-03-23T12:45:48;13.30;99.90
27633;DHT22;15046;50.930;13.334;2023-03-23T12:48:20;13.50;99.90
27633;DHT22;15046;50.930;13.334;2023-03-23T12:56:29;13.90;98.30
27633;DHT22;15046;50.930;13.334;2023-03-23T12:59:04;14.10;97.80
27633;DHT22;15046;50.930;13.334;2023-03-23T13:01:43;14.30;97.10
27633;DHT22;15046;50.930;13.334;2023-03-23T13:04:15;14.50;96.10
27633;DHT22;15046;50.930;13.334;2023-03-23T13:06:47;14.70;95.20
27633;DHT22;15046;50.930;13.334;2023-03-23T13:11:40;14.90;93.80
27633;DHT22;15046;50.930;13.334;2023-03-23T13:20:13;14.80;93.00
27633;DHT22;15046;50.930;13.334;2023-03-23T13:25:46;14.80;93.00
27633;DHT22;15046;50.930;13.334;2023-03-23T13:28:19;14.70;92.80
27633;DHT22;15046;50.930;13.334;2023-03-23T13:31:02;14.70;92.80
27633;DHT22;15046;50.930;13.334;2023-03-23T13:33:34;14.70;92.60
27633;DHT22;15046;50.930;13.334;2023-03-23T13:36:13;14.70;92.60
27633;DHT22;15046;50.930;13.334;2023-03-23T13:38:46;14.80;92.40
27633;DHT22;15046;50.930;13.334;2023-03-23T13:41:15;14.90;92.30
27633;DHT22;15046;50.930;13.334;2023-03-23T13:43:43;15.30;92.10
27633;DHT22;15046;50.930;13.334;2023-03-23T13:54:24;16.30;90.50
27633;DHT22;15046;50.930;13.334;2023-03-23T13:56:58;17.20;89.90
27633;DHT22;15046;50.930;13.334;2023-03-23T14:01:53;18.60;84.20
27633;DHT22;15046;50.930;13.334;2023-03-23T14:04:20;18.60;82.80
27633;DHT22;15046;50.930;13.334;2023-03-23T14:06:49;18.20;82.30
27633;DHT22;15046;50.930;13.334;2023-03-23T14:09:19;17.70;82.50
27633;DHT22;15046;50.930;13.334;2023-03-23T14:12:02;17.30;83.30
27633;DHT22;15046;50.930;13.334;2023-03-23T14:14:40;17.30;84.00
27633;DHT22;15046;50.930;13.334;2023-03-23T14:19:54;18.60;80.90
27633;DHT22;15046;50.930;13.334;2023-03-23T14:22:26;18.80;80.70
27633;DHT22;15046;50.930;13.334;2023-03-23T14:25:00;18.90;79.90
27633;DHT22;15046;50.930;13.334;2023-03-23T14:27:27;18.90;79.20
27633;DHT22;15046;50.930;13.334;2023-03-23T14:30:00;18.60;79.60
27633;DHT22;15046;50.930;13.334;2023-03-23T14:32:29;18.60;79.60
27633;DHT22;15046;50.930;13.334;2023-03-23T14:34:57;18.40;79.70
27633;DHT22;15046;50.930;13.334;2023-03-23T14:37:23;18.30;80.10
27633;DHT22;15046;50.930;13.334;2023-03-23T14:39:52;18.30;80.00
27633;DHT22;15046;50.930;13.334;2023-03-23T14:42:33;18.00;79.90
27633;DHT22;15046;50.930;13.334;2023-03-23T14:45:01;17.80;80.20
27633;DHT22;15046;50.930;13.334;2023-03-23T14:47:32;17.70;80.60
27633;DHT22;15046;50.930;13.334;2023-03-23T14:50:00;18.30;81.30
27633;DHT22;15046;50.930;13.334;2023-03-23T14:52:34;18.90;79.80
27633;DHT22;15046;50.930;13.334;2023-03-23T14:55:16;18.80;78.60
27633;DHT22;15046;50.930;13.334;2023-03-23T14:57:43;18.40;79.00
27633;DHT22;15046;50.930;13.334;2023-03-23T15:00:16;17.90;79.20
27633;DHT22;15046;50.930;13.334;2023-03-23T15:02:46;17.40;79.40
27633;DHT22;15046;50.930;13.334;2023-03-23T15:05:25;17.00;80.40
27633;DHT22;15046;50.930;13.334;2023-03-23T15:07:53;16.80;81.20
27633;DHT22;15046;50.930;13.334;2023-03-23T15:10:22;16.60;81.70
27633;DHT22;15046;50.930;13.334;2023-03-23T15:12:49;16.50;81.80
27633;DHT22;15046;50.930;13.334;2023-03-23T15:15:33;16.40;81.80
27633;DHT22;15046;50.930;13.334;2023-03-23T15:18:01;16.40;81.80
27633;DHT22;15046;50.930;13.334;2023-03-23T15:20:48;16.30;81.60
27633;DHT22;15046;50.930;13.334;2023-03-23T15:23:17;16.20;81.40
27633;DHT22;15046;50.930;13.334;2023-03-23T15:25:51;16.00;81.80
27633;DHT22;15046;50.930;13.334;2023-03-23T15:28:20;15.90;82.20
27633;DHT22;15046;50.930;13.334;2023-03-23T15:30:52;15.90;82.40
27633;DHT22;15046;50.930;13.334;2023-03-23T15:33:19;15.80;82.20
27633;DHT22;15046;50.930;13.334;2023-03-23T15:35:52;15.60;82.50
27633;DHT22;15046;50.930;13.334;2023-03-23T15:38:22;15.50;82.50
27633;DHT22;15046;50.930;13.334;2023-03-23T15:40:49;15.40;82.70
27633;DHT22;15046;50.930;13.334;2023-03-23T15:43:20;15.30;83.00
27633;DHT22;15046;50.930;13.334;2023-03-23T15:48:33;15.20;83.20
27633;DHT22;15046;50.930;13.334;2023-03-23T15:51:01;15.20;83.30
27633;DHT22;15046;50.930;13.334;2023-03-23T15:53:37;15.10;83.50
27633;DHT22;15046;50.930;13.334;2023-03-23T15:56:07;15.00;83.50
27633;DHT22;15046;50.930;13.334;2023-03-23T15:58:35;15.00;83.70
27633;DHT22;15046;50.930;13.334;2023-03-23T16:01:04;14.90;84.00
27633;DHT22;15046;50.930;13.334;2023-03-23T16:03:47;14.90;84.10
27633;DHT22;15046;50.930;13.334;2023-03-23T16:06:16;14.80;84.40
27633;DHT22;15046;50.930;13.334;2023-03-23T16:08:42;14.70;84.60
27633;DHT22;15046;50.930;13.334;2023-03-23T16:11:16;14.70;84.90
27633;DHT22;15046;50.930;13.334;2023-03-23T16:13:42;14.60;85.50
27633;DHT22;15046;50.930;13.334;2023-03-23T16:16:24;14.40;86.20
27633;DHT22;15046;50.930;13.334;2023-03-23T16:18:51;14.30;86.90
27633;DHT22;15046;50.930;13.334;2023-03-23T16:21:17;14.10;87.80
27633;DHT22;15046;50.930;13.334;2023-03-23T16:23:43;14.00;88.70
27633;DHT22;15046;50.930;13.334;2023-03-23T16:26:11;13.90;89.30
27633;DHT22;15046;50.930;13.334;2023-03-23T16:28:37;13.90;89.70
27633;DHT22;15046;50.930;13.334;2023-03-23T16:31:03;13.90;89.90
27633;DHT22;15046;50.930;13.334;2023-03-23T16:33:29;13.90;90.00
27633;DHT22;15046;50.930;13.334;2023-03-23T16:35:55;13.90;90.10
27633;DHT22;15046;50.930;13.334;2023-03-23T16:38:23;13.90;90.20
27633;DHT22;15046;50.930;13.334;2023-03-23T16:40:49;13.90;90.20
27633;DHT22;15046;50.930;13.334;2023-03-23T16:43:15;13.90;90.20
27633;DHT22;15046;50.930;13.334;2023-03-23T16:45:43;13.90;90.20
27633;DHT22;15046;50.930;13.334;2023-03-23T16:48:09;13.90;90.20
27633;DHT22;15046;50.930;13.334;2023-03-23T16:50:36;13.80;90.30
27633;DHT22;15046;50.930;13.334;2023-03-23T16:53:03;13.70;90.40
27633;DHT22;15046;50.930;13.334;2023-03-23T16:55:30;13.70;90.70
27633;DHT22;15046;50.930;13.334;2023-03-23T16:57:56;13.70;90.80
27633;DHT22;15046;50.930;13.334;2023-03-23T17:00:22;13.70;90.80
27633;DHT22;15046;50.930;13.334;2023-03-23T17:02:50;13.70;90.90
27633;DHT22;15046;50.930;13.334;2023-03-23T17:05:21;13.60;90.90
27633;DHT22;15046;50.930;13.334;2023-03-23T17:07:47;13.60;91.00
27633;DHT22;15046;50.930;13.334;2023-03-23T17:10:14;13.60;91.10
27633;DHT22;15046;50.930;13.334;2023-03-23T17:12:40;13.50;91.20
27633;DHT22;15046;50.930;13.334;2023-03-23T17:15:07;13.50;91.30
27633;DHT22;15046;50.930;13.334;2023-03-23T17:17:33;13.50;91.40
27633;DHT22;15046;50.930;13.334;2023-03-23T17:19:59;13.50;91.50
27633;DHT22;15046;50.930;13.334;2023-03-23T17:22:26;13.50;91.60
27633;DHT22;15046;50.930;13.334;2023-03-23T17:24:52;13.50;91.70
27633;DHT22;15046;50.930;13.334;2023-03-23T17:27:20;13.50;91.70
27633;DHT22;15046;50.930;13.334;2023-03-23T17:29:46;13.40;91.80
27633;DHT22;15046;50.930;13.334;2023-03-23T17:32:13;13.30;91.90